sensor_id;sensor_type;location;lat;lon;timestamp;P1;durP1;ratioP1;P2;durP2;ratioP2
12429;SDS011;6279;42.192;24.326;2023-07-24T00:01:01;13.20;;;8.87;;
12429;SDS011;6279;42.192;24.326;2023-07-24T00:03:27;11.53;;;8.97;;
12429;SDS011;6279;42.192;24.326;2023-07-24T00:05:52;14.87;;;9.83;;
12429;SDS011;6279;42.192;24.326;2023-07-24T00:08:18;13.80;;;9.47;;
12429;SDS011;6279;42.192;24.326;2023-07-24T00:10:43;12.67;;;8.83;;
12429;SDS011;6279;42.192;24.326;2023-07-24T00:13:09;12.07;;;8.70;;
12429;SDS011;6279;42.192;24.326;2023-07-24T00:15:34;11.20;;;9.00;;
12429;SDS011;6279;42.192;24.326;2023-07-24T00:17:59;15.30;;;8.70;;
12429;SDS011;6279;42.192;24.326;2023-07-24T00:20:25;11.47;;;8.90;;
12429;SDS011;6279;42.192;24.326;2023-07-24T00:22:51;12.73;;;8.90;;
12429;SDS011;6279;42.192;24.326;2023-07-24T00:25:16;8.67;;;7.40;;
12429;SDS011;6279;42.192;24.326;2023-07-24T00:27:42;9.73;;;7.63;;
12429;SDS011;6279;42.192;24.326;2023-07-24T00:30:07;9.87;;;7.53;;
12429;SDS011;6279;42.192;24.326;2023-07-24T00:32:36;9.97;;;7.63;;
12429;SDS011;6279;42.192;24.326;2023-07-24T00:35:01;8.93;;;7.30;;
12429;SDS011;6279;42.192;24.326;2023-07-24T00:37:27;8.40;;;7.23;;
12429;SDS011;6279;42.192;24.326;2023-07-24T00:39:52;8.67;;;6.93;;
12429;SDS011;6279;42.192;24.326;2023-07-24T00:42:18;10.33;;;6.63;;
12429;SDS011;6279;42.192;24.326;2023-07-24T00:44:43;9.83;;;7.70;;
12429;SDS011;6279;42.192;24.326;2023-07-24T00:47:09;8.87;;;7.00;;
12429;SDS011;6279;42.192;24.326;2023-07-24T00:49:34;9.13;;;7.10;;
12429;SDS011;6279;42.192;24.326;2023-07-24T00:52:00;10.30;;;7.70;;
12429;SDS011;6279;42.192;24.326;2023-07-24T00:54:26;10.67;;;7.30;;
12429;SDS011;6279;42.192;24.326;2023-07-24T00:56:55;7.70;;;6.70;;
12429;SDS011;6279;42.192;24.326;2023-07-24T00:59:21;9.17;;;6.90;;
12429;SDS011;6279;42.192;24.326;2023-07-24T01:01:46;9.00;;;7.27;;
12429;SDS011;6279;42.192;24.326;2023-07-24T01:04:12;9.13;;;7.10;;
12429;SDS011;6279;42.192;24.326;2023-07-24T01:06:41;8.97;;;6.90;;
12429;SDS011;6279;42.192;24.326;2023-07-24T01:09:07;9.83;;;6.83;;
12429;SDS011;6279;42.192;24.326;2023-07-24T01:11:34;8.10;;;6.60;;
12429;SDS011;6279;42.192;24.326;2023-07-24T01:14:09;8.13;;;6.57;;
12429;SDS011;6279;42.192;24.326;2023-07-24T01:16:45;9.43;;;7.00;;
12429;SDS011;6279;42.192;24.326;2023-07-24T01:19:16;7.73;;;6.20;;
12429;SDS011;6279;42.192;24.326;2023-07-24T01:27:34;12.83;;;7.00;;
12429;SDS011;6279;42.192;24.326;2023-07-24T01:30:00;10.87;;;7.23;;
12429;SDS011;6279;42.192;24.326;2023-07-24T01:32:25;11.87;;;8.23;;
12429;SDS011;6279;42.192;24.326;2023-07-24T01:34:51;11.53;;;8.07;;
12429;SDS011;6279;42.192;24.326;2023-07-24T01:37:17;7.90;;;7.07;;
12429;SDS011;6279;42.192;24.326;2023-07-24T01:39:45;9.37;;;7.80;;
12429;SDS011;6279;42.192;24.326;2023-07-24T01:42:11;10.27;;;7.63;;
12429;SDS011;6279;42.192;24.326;2023-07-24T01:44:37;11.73;;;7.50;;
12429;SDS011;6279;42.192;24.326;2023-07-24T01:47:03;8.47;;;7.27;;
12429;SDS011;6279;42.192;24.326;2023-07-24T01:49:31;10.70;;;7.73;;
12429;SDS011;6279;42.192;24.326;2023-07-24T01:51:57;8.63;;;7.43;;
12429;SDS011;6279;42.192;24.326;2023-07-24T01:54:22;7.63;;;6.70;;
12429;SDS011;6279;42.192;24.326;2023-07-24T01:56:51;9.90;;;7.17;;
12429;SDS011;6279;42.192;24.326;2023-07-24T01:59:17;8.00;;;7.03;;
12429;SDS011;6279;42.192;24.326;2023-07-24T02:01:42;10.87;;;7.17;;
12429;SDS011;6279;42.192;24.326;2023-07-24T02:04:08;9.23;;;7.13;;
12429;SDS011;6279;42.192;24.326;2023-07-24T02:06:33;8.27;;;6.20;;
12429;SDS011;6279;42.192;24.326;2023-07-24T02:08:58;8.30;;;6.17;;
12429;SDS011;6279;42.192;24.326;2023-07-24T02:11:24;8.97;;;6.63;;
12429;SDS011;6279;42.192;24.326;2023-07-24T02:13:49;9.77;;;6.87;;
12429;SDS011;6279;42.192;24.326;2023-07-24T02:16:15;8.73;;;6.20;;
12429;SDS011;6279;42.192;24.326;2023-07-24T02:18:41;7.00;;;6.03;;
12429;SDS011;6279;42.192;24.326;2023-07-24T02:21:07;7.53;;;5.97;;
12429;SDS011;6279;42.192;24.326;2023-07-24T02:23:32;8.67;;;6.90;;
12429;SDS011;6279;42.192;24.326;2023-07-24T02:25:58;8.13;;;5.90;;
12429;SDS011;6279;42.192;24.326;2023-07-24T02:28:23;9.47;;;6.63;;
12429;SDS011;6279;42.192;24.326;2023-07-24T02:30:49;6.63;;;5.80;;
12429;SDS011;6279;42.192;24.326;2023-07-24T02:33:15;7.87;;;6.43;;
12429;SDS011;6279;42.192;24.326;2023-07-24T02:35:41;9.00;;;6.73;;
12429;SDS011;6279;42.192;24.326;2023-07-24T02:38:07;8.13;;;5.93;;
12429;SDS011;6279;42.192;24.326;2023-07-24T02:40:35;10.13;;;6.90;;
12429;SDS011;6279;42.192;24.326;2023-07-24T02:43:01;10.07;;;7.00;;
12429;SDS011;6279;42.192;24.326;2023-07-24T02:45:27;9.70;;;7.83;;
12429;SDS011;6279;42.192;24.326;2023-07-24T02:47:52;11.20;;;7.90;;
12429;SDS011;6279;42.192;24.326;2023-07-24T02:50:17;13.63;;;7.50;;
12429;SDS011;6279;42.192;24.326;2023-07-24T02:52:43;10.00;;;7.47;;
12429;SDS011;6279;42.192;24.326;2023-07-24T02:55:11;10.80;;;7.57;;
12429;SDS011;6279;42.192;24.326;2023-07-24T02:57:36;19.10;;;7.53;;
12429;SDS011;6279;42.192;24.326;2023-07-24T03:00:02;11.00;;;7.13;;
12429;SDS011;6279;42.192;24.326;2023-07-24T03:02:28;11.93;;;7.37;;
12429;SDS011;6279;42.192;24.326;2023-07-24T03:04:53;11.57;;;7.33;;
12429;SDS011;6279;42.192;24.326;2023-07-24T03:07:19;9.57;;;7.33;;
12429;SDS011;6279;42.192;24.326;2023-07-24T03:09:45;8.77;;;7.50;;
12429;SDS011;6279;42.192;24.326;2023-07-24T03:12:10;15.43;;;7.37;;
12429;SDS011;6279;42.192;24.326;2023-07-24T03:14:36;13.80;;;7.57;;
12429;SDS011;6279;42.192;24.326;2023-07-24T03:17:01;7.97;;;7.17;;
12429;SDS011;6279;42.192;24.326;2023-07-24T03:19:27;9.97;;;7.03;;
12429;SDS011;6279;42.192;24.326;2023-07-24T03:21:52;13.57;;;6.93;;
12429;SDS011;6279;42.192;24.326;2023-07-24T03:24:18;9.43;;;6.73;;
12429;SDS011;6279;42.192;24.326;2023-07-24T03:26:43;11.27;;;7.17;;
12429;SDS011;6279;42.192;24.326;2023-07-24T03:29:08;10.63;;;7.67;;
12429;SDS011;6279;42.192;24.326;2023-07-24T03:31:34;9.90;;;6.50;;
12429;SDS011;6279;42.192;24.326;2023-07-24T03:33:59;9.97;;;7.23;;
12429;SDS011;6279;42.192;24.326;2023-07-24T03:36:24;9.70;;;6.83;;
12429;SDS011;6279;42.192;24.326;2023-07-24T03:38:50;9.90;;;6.53;;
12429;SDS011;6279;42.192;24.326;2023-07-24T03:41:15;10.77;;;6.87;;
12429;SDS011;6279;42.192;24.326;2023-07-24T03:43:41;9.70;;;6.93;;
12429;SDS011;6279;42.192;24.326;2023-07-24T03:46:06;13.53;;;7.70;;
12429;SDS011;6279;42.192;24.326;2023-07-24T03:48:31;14.53;;;7.20;;
12429;SDS011;6279;42.192;24.326;2023-07-24T03:51:00;14.00;;;8.17;;
12429;SDS011;6279;42.192;24.326;2023-07-24T03:53:26;8.60;;;7.27;;
12429;SDS011;6279;42.192;24.326;2023-07-24T03:55:52;12.70;;;8.50;;
12429;SDS011;6279;42.192;24.326;2023-07-24T03:58:17;12.83;;;7.70;;
12429;SDS011;6279;42.192;24.326;2023-07-24T04:00:43;10.53;;;8.43;;
12429;SDS011;6279;42.192;24.326;2023-07-24T04:03:08;13.17;;;7.77;;
12429;SDS011;6279;42.192;24.326;2023-07-24T04:05:34;15.37;;;8.00;;
12429;SDS011;6279;42.192;24.326;2023-07-24T04:08:00;12.70;;;8.50;;
12429;SDS011;6279;42.192;24.326;2023-07-24T04:10:26;11.30;;;9.00;;
12429;SDS011;6279;42.192;24.326;2023-07-24T04:12:51;15.77;;;8.30;;
12429;SDS011;6279;42.192;24.326;2023-07-24T04:15:17;13.10;;;8.47;;
12429;SDS011;6279;42.192;24.326;2023-07-24T04:17:42;20.17;;;8.17;;
12429;SDS011;6279;42.192;24.326;2023-07-24T04:20:08;10.57;;;7.17;;
12429;SDS011;6279;42.192;24.326;2023-07-24T04:22:34;10.20;;;7.20;;
12429;SDS011;6279;42.192;24.326;2023-07-24T04:24:59;10.20;;;7.37;;
12429;SDS011;6279;42.192;24.326;2023-07-24T04:27:24;14.17;;;7.33;;
12429;SDS011;6279;42.192;24.326;2023-07-24T04:29:50;14.23;;;7.20;;
12429;SDS011;6279;42.192;24.326;2023-07-24T04:32:15;21.67;;;8.27;;
12429;SDS011;6279;42.192;24.326;2023-07-24T04:34:40;11.30;;;7.17;;
12429;SDS011;6279;42.192;24.326;2023-07-24T04:37:06;10.60;;;7.10;;
12429;SDS011;6279;42.192;24.326;2023-07-24T04:39:31;11.70;;;7.53;;
12429;SDS011;6279;42.192;24.326;2023-07-24T04:41:58;13.67;;;7.53;;
12429;SDS011;6279;42.192;24.326;2023-07-24T04:44:23;15.90;;;7.83;;
12429;SDS011;6279;42.192;24.326;2023-07-24T04:46:49;14.20;;;7.13;;
12429;SDS011;6279;42.192;24.326;2023-07-24T04:49:15;10.83;;;7.20;;
12429;SDS011;6279;42.192;24.326;2023-07-24T04:51:40;9.67;;;7.50;;
12429;SDS011;6279;42.192;24.326;2023-07-24T04:54:06;16.20;;;7.13;;
12429;SDS011;6279;42.192;24.326;2023-07-24T04:56:31;13.90;;;7.73;;
12429;SDS011;6279;42.192;24.326;2023-07-24T04:58:57;18.57;;;8.37;;
12429;SDS011;6279;42.192;24.326;2023-07-24T05:01:22;10.67;;;7.23;;
12429;SDS011;6279;42.192;24.326;2023-07-24T05:03:47;10.90;;;6.93;;
12429;SDS011;6279;42.192;24.326;2023-07-24T05:06:13;11.38;;;7.47;;
12429;SDS011;6279;42.192;24.326;2023-07-24T05:08:38;12.20;;;7.78;;
12429;SDS011;6279;42.192;24.326;2023-07-24T05:11:04;14.02;;;6.93;;
12429;SDS011;6279;42.192;24.326;2023-07-24T05:13:29;8.50;;;6.40;;
12429;SDS011;6279;42.192;24.326;2023-07-24T05:15:54;10.57;;;7.15;;
12429;SDS011;6279;42.192;24.326;2023-07-24T05:18:20;11.23;;;7.60;;
12429;SDS011;6279;42.192;24.326;2023-07-24T05:20:46;13.73;;;7.85;;
12429;SDS011;6279;42.192;24.326;2023-07-24T05:23:20;10.57;;;8.02;;
12429;SDS011;6279;42.192;24.326;2023-07-24T05:25:46;14.70;;;8.73;;
12429;SDS011;6279;42.192;24.326;2023-07-24T05:28:12;10.82;;;8.35;;
12429;SDS011;6279;42.192;24.326;2023-07-24T05:30:37;12.52;;;8.60;;
12429;SDS011;6279;42.192;24.326;2023-07-24T05:33:02;10.60;;;8.35;;
12429;SDS011;6279;42.192;24.326;2023-07-24T05:35:28;14.13;;;8.20;;
12429;SDS011;6279;42.192;24.326;2023-07-24T05:37:53;12.30;;;8.10;;
12429;SDS011;6279;42.192;24.326;2023-07-24T05:40:19;16.40;;;8.27;;
12429;SDS011;6279;42.192;24.326;2023-07-24T05:42:44;14.57;;;8.00;;
12429;SDS011;6279;42.192;24.326;2023-07-24T05:45:11;16.55;;;8.88;;
12429;SDS011;6279;42.192;24.326;2023-07-24T05:47:36;14.68;;;8.45;;
12429;SDS011;6279;42.192;24.326;2023-07-24T05:50:02;14.07;;;9.23;;
12429;SDS011;6279;42.192;24.326;2023-07-24T05:52:28;13.32;;;8.95;;
12429;SDS011;6279;42.192;24.326;2023-07-24T05:54:53;14.57;;;10.30;;
12429;SDS011;6279;42.192;24.326;2023-07-24T05:57:19;12.07;;;9.82;;
12429;SDS011;6279;42.192;24.326;2023-07-24T05:59:44;13.98;;;9.20;;
12429;SDS011;6279;42.192;24.326;2023-07-24T06:02:10;14.13;;;10.00;;
12429;SDS011;6279;42.192;24.326;2023-07-24T06:04:36;13.85;;;9.32;;
12429;SDS011;6279;42.192;24.326;2023-07-24T06:07:01;12.07;;;9.57;;
12429;SDS011;6279;42.192;24.326;2023-07-24T06:09:27;14.75;;;10.07;;
12429;SDS011;6279;42.192;24.326;2023-07-24T06:11:52;13.07;;;9.80;;
12429;SDS011;6279;42.192;24.326;2023-07-24T06:14:17;15.65;;;10.48;;
12429;SDS011;6279;42.192;24.326;2023-07-24T06:16:43;15.18;;;11.32;;
12429;SDS011;6279;42.192;24.326;2023-07-24T06:19:08;17.17;;;10.73;;
12429;SDS011;6279;42.192;24.326;2023-07-24T06:21:33;16.60;;;9.80;;
12429;SDS011;6279;42.192;24.326;2023-07-24T06:24:02;12.73;;;9.93;;
12429;SDS011;6279;42.192;24.326;2023-07-24T06:26:27;19.77;;;10.25;;
12429;SDS011;6279;42.192;24.326;2023-07-24T06:28:54;17.90;;;10.07;;
12429;SDS011;6279;42.192;24.326;2023-07-24T06:31:19;16.73;;;11.02;;
12429;SDS011;6279;42.192;24.326;2023-07-24T06:33:44;16.45;;;10.48;;
12429;SDS011;6279;42.192;24.326;2023-07-24T06:36:10;11.75;;;9.60;;
12429;SDS011;6279;42.192;24.326;2023-07-24T06:38:35;20.17;;;10.93;;
12429;SDS011;6279;42.192;24.326;2023-07-24T06:41:01;13.35;;;10.23;;
12429;SDS011;6279;42.192;24.326;2023-07-24T06:43:26;13.63;;;10.50;;
12429;SDS011;6279;42.192;24.326;2023-07-24T06:45:52;16.70;;;10.15;;
12429;SDS011;6279;42.192;24.326;2023-07-24T06:48:18;12.88;;;9.40;;
12429;SDS011;6279;42.192;24.326;2023-07-24T06:50:43;13.70;;;10.63;;
12429;SDS011;6279;42.192;24.326;2023-07-24T06:53:08;13.30;;;10.70;;
12429;SDS011;6279;42.192;24.326;2023-07-24T06:55:34;16.88;;;10.10;;
12429;SDS011;6279;42.192;24.326;2023-07-24T06:57:59;15.07;;;10.63;;
12429;SDS011;6279;42.192;24.326;2023-07-24T07:00:25;15.00;;;10.60;;
12429;SDS011;6279;42.192;24.326;2023-07-24T07:02:50;13.82;;;10.18;;
12429;SDS011;6279;42.192;24.326;2023-07-24T07:05:15;15.02;;;9.68;;
12429;SDS011;6279;42.192;24.326;2023-07-24T07:07:41;14.43;;;10.10;;
12429;SDS011;6279;42.192;24.326;2023-07-24T07:10:06;11.65;;;9.70;;
12429;SDS011;6279;42.192;24.326;2023-07-24T07:12:32;14.93;;;10.15;;
12429;SDS011;6279;42.192;24.326;2023-07-24T07:14:57;14.23;;;10.35;;
12429;SDS011;6279;42.192;24.326;2023-07-24T07:17:23;12.18;;;9.95;;
12429;SDS011;6279;42.192;24.326;2023-07-24T07:19:48;13.85;;;9.93;;
12429;SDS011;6279;42.192;24.326;2023-07-24T07:22:13;11.82;;;9.85;;
12429;SDS011;6279;42.192;24.326;2023-07-24T07:24:39;13.13;;;10.35;;
12429;SDS011;6279;42.192;24.326;2023-07-24T07:27:05;14.98;;;10.63;;
12429;SDS011;6279;42.192;24.326;2023-07-24T07:29:30;11.77;;;10.13;;
12429;SDS011;6279;42.192;24.326;2023-07-24T07:31:56;13.02;;;10.10;;
12429;SDS011;6279;42.192;24.326;2023-07-24T07:34:22;12.82;;;10.85;;
12429;SDS011;6279;42.192;24.326;2023-07-24T07:36:47;16.30;;;10.48;;
12429;SDS011;6279;42.192;24.326;2023-07-24T07:39:12;11.63;;;10.43;;
12429;SDS011;6279;42.192;24.326;2023-07-24T07:41:38;11.93;;;10.18;;
12429;SDS011;6279;42.192;24.326;2023-07-24T07:44:04;11.68;;;9.85;;
12429;SDS011;6279;42.192;24.326;2023-07-24T07:46:29;15.13;;;11.75;;
12429;SDS011;6279;42.192;24.326;2023-07-24T07:48:54;14.73;;;11.10;;
12429;SDS011;6279;42.192;24.326;2023-07-24T07:51:20;17.77;;;11.68;;
12429;SDS011;6279;42.192;24.326;2023-07-24T07:53:45;14.90;;;11.57;;
12429;SDS011;6279;42.192;24.326;2023-07-24T07:56:11;13.48;;;10.90;;
12429;SDS011;6279;42.192;24.326;2023-07-24T07:58:36;12.98;;;10.00;;
12429;SDS011;6279;42.192;24.326;2023-07-24T08:01:05;12.57;;;10.45;;
12429;SDS011;6279;42.192;24.326;2023-07-24T08:03:31;11.68;;;10.50;;
12429;SDS011;6279;42.192;24.326;2023-07-24T08:05:56;14.18;;;10.20;;
12429;SDS011;6279;42.192;24.326;2023-07-24T08:08:23;12.38;;;10.27;;
12429;SDS011;6279;42.192;24.326;2023-07-24T08:10:48;11.65;;;10.02;;
12429;SDS011;6279;42.192;24.326;2023-07-24T08:13:14;11.77;;;10.43;;
12429;SDS011;6279;42.192;24.326;2023-07-24T08:15:39;13.98;;;10.57;;
12429;SDS011;6279;42.192;24.326;2023-07-24T08:18:04;13.50;;;10.85;;
12429;SDS011;6279;42.192;24.326;2023-07-24T08:20:30;13.63;;;10.85;;
12429;SDS011;6279;42.192;24.326;2023-07-24T08:22:56;13.65;;;11.18;;
12429;SDS011;6279;42.192;24.326;2023-07-24T08:25:21;14.70;;;9.57;;
12429;SDS011;6279;42.192;24.326;2023-07-24T08:27:47;13.30;;;10.65;;
12429;SDS011;6279;42.192;24.326;2023-07-24T08:30:12;11.85;;;10.43;;
12429;SDS011;6279;42.192;24.326;2023-07-24T08:32:38;11.07;;;9.98;;
12429;SDS011;6279;42.192;24.326;2023-07-24T08:35:05;14.07;;;9.85;;
12429;SDS011;6279;42.192;24.326;2023-07-24T08:37:31;13.65;;;10.68;;
12429;SDS011;6279;42.192;24.326;2023-07-24T08:39:56;11.48;;;9.35;;
12429;SDS011;6279;42.192;24.326;2023-07-24T08:42:21;10.93;;;9.82;;
12429;SDS011;6279;42.192;24.326;2023-07-24T08:44:47;11.75;;;10.43;;
12429;SDS011;6279;42.192;24.326;2023-07-24T08:47:13;11.07;;;9.85;;
12429;SDS011;6279;42.192;24.326;2023-07-24T08:49:40;11.95;;;10.07;;
12429;SDS011;6279;42.192;24.326;2023-07-24T08:52:07;11.48;;;10.25;;
12429;SDS011;6279;42.192;24.326;2023-07-24T08:54:32;11.07;;;9.98;;
12429;SDS011;6279;42.192;24.326;2023-07-24T08:57:02;11.93;;;10.32;;
12429;SDS011;6279;42.192;24.326;2023-07-24T08:59:27;10.60;;;9.48;;
12429;SDS011;6279;42.192;24.326;2023-07-24T09:01:54;10.90;;;9.80;;
12429;SDS011;6279;42.192;24.326;2023-07-24T09:04:20;10.93;;;9.82;;
12429;SDS011;6279;42.192;24.326;2023-07-24T09:06:46;11.82;;;10.13;;
12429;SDS011;6279;42.192;24.326;2023-07-24T09:09:12;12.15;;;10.85;;
12429;SDS011;6279;42.192;24.326;2023-07-24T09:11:49;14.48;;;10.98;;
12429;SDS011;6279;42.192;24.326;2023-07-24T09:14:20;13.20;;;10.10;;
12429;SDS011;6279;42.192;24.326;2023-07-24T09:16:46;11.32;;;9.98;;
12429;SDS011;6279;42.192;24.326;2023-07-24T09:19:18;15.68;;;10.52;;
12429;SDS011;6279;42.192;24.326;2023-07-24T09:21:44;11.10;;;9.38;;
12429;SDS011;6279;42.192;24.326;2023-07-24T09:24:18;11.10;;;10.00;;
12429;SDS011;6279;42.192;24.326;2023-07-24T09:26:52;11.23;;;9.73;;
12429;SDS011;6279;42.192;24.326;2023-07-24T09:29:18;10.85;;;9.50;;
12429;SDS011;6279;42.192;24.326;2023-07-24T09:31:44;11.88;;;10.38;;
12429;SDS011;6279;42.192;24.326;2023-07-24T09:34:16;10.20;;;9.05;;
12429;SDS011;6279;42.192;24.326;2023-07-24T09:36:42;11.93;;;9.73;;
12429;SDS011;6279;42.192;24.326;2023-07-24T09:39:09;11.07;;;9.70;;
12429;SDS011;6279;42.192;24.326;2023-07-24T09:41:36;14.38;;;9.13;;
12429;SDS011;6279;42.192;24.326;2023-07-24T09:44:06;11.20;;;9.77;;
12429;SDS011;6279;42.192;24.326;2023-07-24T09:46:32;12.52;;;9.77;;
12429;SDS011;6279;42.192;24.326;2023-07-24T09:48:57;12.38;;;10.00;;
12429;SDS011;6279;42.192;24.326;2023-07-24T09:51:23;10.23;;;8.77;;
12429;SDS011;6279;42.192;24.326;2023-07-24T09:56:23;9.43;;;8.52;;
12429;SDS011;6279;42.192;24.326;2023-07-24T09:58:49;10.48;;;9.27;;
12429;SDS011;6279;42.192;24.326;2023-07-24T10:01:20;10.05;;;9.05;;
12429;SDS011;6279;42.192;24.326;2023-07-24T10:03:46;13.98;;;9.25;;
12429;SDS011;6279;42.192;24.326;2023-07-24T10:06:13;10.70;;;9.13;;
12429;SDS011;6279;42.192;24.326;2023-07-24T10:08:40;10.15;;;8.90;;
12429;SDS011;6279;42.192;24.326;2023-07-24T10:11:06;10.57;;;8.98;;
12429;SDS011;6279;42.192;24.326;2023-07-24T10:13:32;9.77;;;8.77;;
12429;SDS011;6279;42.192;24.326;2023-07-24T10:16:01;10.30;;;8.90;;
12429;SDS011;6279;42.192;24.326;2023-07-24T10:18:28;10.65;;;9.00;;
12429;SDS011;6279;42.192;24.326;2023-07-24T10:21:04;10.63;;;9.52;;
12429;SDS011;6279;42.192;24.326;2023-07-24T10:23:33;10.68;;;9.43;;
12429;SDS011;6279;42.192;24.326;2023-07-24T10:26:03;10.15;;;9.15;;
12429;SDS011;6279;42.192;24.326;2023-07-24T10:28:30;11.27;;;8.77;;
12429;SDS011;6279;42.192;24.326;2023-07-24T10:30:57;10.13;;;8.77;;
12429;SDS011;6279;42.192;24.326;2023-07-24T10:33:22;10.02;;;9.13;;
12429;SDS011;6279;42.192;24.326;2023-07-24T10:35:53;9.73;;;8.73;;
12429;SDS011;6279;42.192;24.326;2023-07-24T10:38:19;9.90;;;8.93;;
12429;SDS011;6279;42.192;24.326;2023-07-24T10:40:45;10.82;;;8.95;;
12429;SDS011;6279;42.192;24.326;2023-07-24T10:43:19;10.60;;;9.38;;
12429;SDS011;6279;42.192;24.326;2023-07-24T10:48:11;14.25;;;9.27;;
12429;SDS011;6279;42.192;24.326;2023-07-24T10:50:40;7.75;;;6.95;;
12429;SDS011;6279;42.192;24.326;2023-07-24T10:53:08;10.02;;;9.00;;
12429;SDS011;6279;42.192;24.326;2023-07-24T10:55:34;9.63;;;8.55;;
12429;SDS011;6279;42.192;24.326;2023-07-24T10:58:00;9.48;;;8.50;;
12429;SDS011;6279;42.192;24.326;2023-07-24T11:00:25;10.70;;;9.57;;
12429;SDS011;6279;42.192;24.326;2023-07-24T11:02:52;9.63;;;8.73;;
12429;SDS011;6279;42.192;24.326;2023-07-24T11:05:21;10.63;;;9.32;;
12429;SDS011;6279;42.192;24.326;2023-07-24T11:07:47;10.45;;;9.43;;
12429;SDS011;6279;42.192;24.326;2023-07-24T11:10:20;10.68;;;9.55;;
12429;SDS011;6279;42.192;24.326;2023-07-24T11:12:47;11.32;;;9.75;;
12429;SDS011;6279;42.192;24.326;2023-07-24T11:15:13;13.43;;;9.38;;
12429;SDS011;6279;42.192;24.326;2023-07-24T11:17:39;12.18;;;9.40;;
12429;SDS011;6279;42.192;24.326;2023-07-24T11:22:31;12.02;;;10.75;;
12429;SDS011;6279;42.192;24.326;2023-07-24T11:24:58;13.05;;;10.18;;
12429;SDS011;6279;42.192;24.326;2023-07-24T11:27:24;16.67;;;9.50;;
12429;SDS011;6279;42.192;24.326;2023-07-24T11:29:50;11.45;;;10.25;;
12429;SDS011;6279;42.192;24.326;2023-07-24T11:32:18;12.25;;;10.50;;
12429;SDS011;6279;42.192;24.326;2023-07-24T11:34:45;12.68;;;10.57;;
12429;SDS011;6279;42.192;24.326;2023-07-24T11:37:12;10.98;;;9.82;;
12429;SDS011;6279;42.192;24.326;2023-07-24T11:39:37;15.07;;;10.23;;
12429;SDS011;6279;42.192;24.326;2023-07-24T11:42:03;13.60;;;10.98;;
12429;SDS011;6279;42.192;24.326;2023-07-24T11:44:29;12.32;;;10.05;;
12429;SDS011;6279;42.192;24.326;2023-07-24T11:47:04;12.27;;;10.35;;
12429;SDS011;6279;42.192;24.326;2023-07-24T11:49:31;12.65;;;10.18;;
12429;SDS011;6279;42.192;24.326;2023-07-24T11:52:15;11.73;;;10.48;;
12429;SDS011;6279;42.192;24.326;2023-07-24T11:54:40;13.68;;;10.98;;
12429;SDS011;6279;42.192;24.326;2023-07-24T11:57:15;12.10;;;10.45;;
12429;SDS011;6279;42.192;24.326;2023-07-24T11:59:41;13.95;;;10.55;;
12429;SDS011;6279;42.192;24.326;2023-07-24T12:02:09;11.52;;;9.88;;
12429;SDS011;6279;42.192;24.326;2023-07-24T12:04:36;11.82;;;10.07;;
12429;SDS011;6279;42.192;24.326;2023-07-24T12:07:07;12.23;;;9.52;;
12429;SDS011;6279;42.192;24.326;2023-07-24T12:09:33;13.35;;;10.15;;
12429;SDS011;6279;42.192;24.326;2023-07-24T12:11:59;13.63;;;10.77;;
12429;SDS011;6279;42.192;24.326;2023-07-24T12:14:24;10.80;;;9.70;;
12429;SDS011;6279;42.192;24.326;2023-07-24T12:16:59;12.40;;;10.20;;
12429;SDS011;6279;42.192;24.326;2023-07-24T12:19:28;13.65;;;10.10;;
12429;SDS011;6279;42.192;24.326;2023-07-24T12:21:53;10.93;;;9.75;;
12429;SDS011;6279;42.192;24.326;2023-07-24T12:24:19;14.70;;;10.05;;
12429;SDS011;6279;42.192;24.326;2023-07-24T12:26:44;11.93;;;9.88;;
12429;SDS011;6279;42.192;24.326;2023-07-24T12:29:09;12.15;;;9.73;;
12429;SDS011;6279;42.192;24.326;2023-07-24T12:31:35;12.77;;;10.70;;
12429;SDS011;6279;42.192;24.326;2023-07-24T12:34:00;13.63;;;10.05;;
12429;SDS011;6279;42.192;24.326;2023-07-24T12:36:26;12.85;;;9.40;;
12429;SDS011;6279;42.192;24.326;2023-07-24T12:38:51;10.23;;;9.05;;
12429;SDS011;6279;42.192;24.326;2023-07-24T12:41:17;11.10;;;9.52;;
12429;SDS011;6279;42.192;24.326;2023-07-24T12:43:42;10.82;;;9.68;;
12429;SDS011;6279;42.192;24.326;2023-07-24T12:46:08;10.85;;;9.02;;
12429;SDS011;6279;42.192;24.326;2023-07-24T12:48:34;10.23;;;9.20;;
12429;SDS011;6279;42.192;24.326;2023-07-24T12:51:01;12.02;;;9.45;;
12429;SDS011;6279;42.192;24.326;2023-07-24T12:53:26;11.32;;;8.90;;
12429;SDS011;6279;42.192;24.326;2023-07-24T12:55:52;12.40;;;8.93;;
12429;SDS011;6279;42.192;24.326;2023-07-24T12:58:17;10.80;;;9.23;;
12429;SDS011;6279;42.192;24.326;2023-07-24T13:00:42;11.77;;;9.55;;
12429;SDS011;6279;42.192;24.326;2023-07-24T13:03:08;12.85;;;9.40;;
12429;SDS011;6279;42.192;24.326;2023-07-24T13:05:33;9.93;;;8.88;;
12429;SDS011;6279;42.192;24.326;2023-07-24T13:07:59;13.88;;;9.88;;
12429;SDS011;6279;42.192;24.326;2023-07-24T13:10:24;11.90;;;9.55;;
12429;SDS011;6279;42.192;24.326;2023-07-24T13:12:49;14.30;;;9.85;;
12429;SDS011;6279;42.192;24.326;2023-07-24T13:15:15;12.15;;;9.85;;
12429;SDS011;6279;42.192;24.326;2023-07-24T13:17:40;11.70;;;9.63;;
12429;SDS011;6279;42.192;24.326;2023-07-24T13:20:06;11.75;;;9.38;;
12429;SDS011;6279;42.192;24.326;2023-07-24T13:22:32;13.70;;;9.43;;
12429;SDS011;6279;42.192;24.326;2023-07-24T13:24:57;11.30;;;9.38;;
12429;SDS011;6279;42.192;24.326;2023-07-24T13:27:22;10.40;;;9.35;;
12429;SDS011;6279;42.192;24.326;2023-07-24T13:29:48;12.45;;;9.70;;
12429;SDS011;6279;42.192;24.326;2023-07-24T13:32:13;12.13;;;9.77;;
12429;SDS011;6279;42.192;24.326;2023-07-24T13:34:39;11.52;;;9.55;;
12429;SDS011;6279;42.192;24.326;2023-07-24T13:37:04;11.73;;;9.65;;
12429;SDS011;6279;42.192;24.326;2023-07-24T13:39:30;11.50;;;9.65;;
12429;SDS011;6279;42.192;24.326;2023-07-24T13:41:56;14.85;;;9.63;;
12429;SDS011;6279;42.192;24.326;2023-07-24T13:44:22;10.77;;;9.60;;
12429;SDS011;6279;42.192;24.326;2023-07-24T13:46:47;10.73;;;9.63;;
12429;SDS011;6279;42.192;24.326;2023-07-24T13:49:13;10.27;;;9.18;;
12429;SDS011;6279;42.192;24.326;2023-07-24T13:51:38;14.18;;;10.25;;
12429;SDS011;6279;42.192;24.326;2023-07-24T13:54:03;11.60;;;9.80;;
12429;SDS011;6279;42.192;24.326;2023-07-24T13:56:29;13.45;;;9.90;;
12429;SDS011;6279;42.192;24.326;2023-07-24T13:58:58;10.93;;;9.05;;
12429;SDS011;6279;42.192;24.326;2023-07-24T14:01:23;12.50;;;9.65;;
12429;SDS011;6279;42.192;24.326;2023-07-24T14:03:49;11.70;;;9.77;;
12429;SDS011;6279;42.192;24.326;2023-07-24T14:06:14;14.63;;;10.25;;
12429;SDS011;6279;42.192;24.326;2023-07-24T14:08:39;12.48;;;9.65;;
12429;SDS011;6279;42.192;24.326;2023-07-24T14:11:05;12.35;;;9.30;;
12429;SDS011;6279;42.192;24.326;2023-07-24T14:13:30;11.18;;;9.90;;
12429;SDS011;6279;42.192;24.326;2023-07-24T14:15:56;10.95;;;9.32;;
12429;SDS011;6279;42.192;24.326;2023-07-24T14:18:21;14.20;;;9.88;;
12429;SDS011;6279;42.192;24.326;2023-07-24T14:20:46;15.88;;;9.85;;
12429;SDS011;6279;42.192;24.326;2023-07-24T14:23:12;11.05;;;9.75;;
12429;SDS011;6279;42.192;24.326;2023-07-24T14:25:38;11.48;;;9.65;;
12429;SDS011;6279;42.192;24.326;2023-07-24T14:28:03;12.80;;;9.57;;
12429;SDS011;6279;42.192;24.326;2023-07-24T14:30:29;11.40;;;9.40;;
12429;SDS011;6279;42.192;24.326;2023-07-24T14:32:54;12.45;;;9.30;;
12429;SDS011;6279;42.192;24.326;2023-07-24T14:35:20;10.20;;;9.13;;
12429;SDS011;6279;42.192;24.326;2023-07-24T14:37:45;13.30;;;9.20;;
12429;SDS011;6279;42.192;24.326;2023-07-24T14:40:11;12.82;;;9.48;;